createdAt,value
2018-12-23T00:02:14.458Z,13.87
2018-12-23T00:04:41.036Z,14.33
2018-12-23T00:07:07.514Z,13.83
2018-12-23T00:09:34.010Z,14.10
2018-12-23T00:12:00.495Z,14.70
2018-12-23T00:14:26.995Z,15.10
2018-12-23T00:16:53.600Z,12.47
2018-12-23T00:19:20.115Z,12.93
2018-12-23T00:21:46.650Z,11.70
2018-12-23T00:24:13.380Z,10.50
2018-12-23T00:26:39.882Z,11.43
2018-12-23T00:29:06.372Z,12.47
2018-12-23T00:31:33.070Z,12.57
2018-12-23T00:33:59.549Z,11.50
2018-12-23T00:36:26.162Z,11.90
2018-12-23T00:38:52.667Z,10.60
2018-12-23T00:41:19.105Z,10.70
2018-12-23T00:43:45.568Z,9.90
2018-12-23T00:46:12.330Z,10.43
2018-12-23T00:48:38.766Z,10.00
2018-12-23T00:51:05.232Z,9.70
2018-12-23T00:53:31.694Z,9.20
2018-12-23T00:55:58.162Z,9.83
2018-12-23T00:58:24.657Z,9.93
2018-12-23T01:00:51.250Z,10.43
2018-12-23T01:03:17.764Z,10.10
2018-12-23T01:05:44.235Z,10.00
2018-12-23T01:08:10.910Z,9.73
2018-12-23T01:10:37.417Z,10.43
2018-12-23T01:13:03.940Z,9.97
2018-12-23T01:15:30.424Z,9.50
2018-12-23T01:17:56.879Z,10.03
2018-12-23T01:20:23.347Z,9.60
2018-12-23T01:22:50.059Z,9.53
2018-12-23T01:32:44.123Z,8.57
2018-12-23T01:35:10.669Z,8.60
2018-12-23T01:37:37.315Z,10.63
2018-12-23T01:40:04.572Z,11.17
2018-12-23T01:42:31.192Z,13.20
2018-12-23T01:44:57.721Z,11.60
2018-12-23T01:47:24.293Z,11.80
2018-12-23T01:49:50.809Z,11.60
2018-12-23T01:52:17.421Z,10.00
2018-12-23T01:54:43.985Z,11.43
2018-12-23T01:57:10.604Z,10.90
2018-12-23T01:59:37.128Z,11.80
2018-12-23T02:02:03.916Z,12.27
2018-12-23T02:04:30.461Z,12.60
2018-12-23T02:06:57.228Z,13.30
2018-12-23T02:09:24.133Z,12.60
2018-12-23T02:11:50.694Z,12.60
2018-12-23T02:14:17.599Z,13.47
2018-12-23T02:16:44.197Z,14.00
2018-12-23T02:19:10.771Z,13.10
2018-12-23T02:21:37.574Z,13.37
2018-12-23T02:24:04.145Z,15.00
2018-12-23T02:26:30.668Z,13.70
2018-12-23T02:28:57.202Z,14.87
2018-12-23T02:31:23.770Z,14.33
2018-12-23T02:33:50.610Z,14.83
2018-12-23T02:36:17.208Z,15.17
2018-12-23T02:38:44.043Z,15.93
2018-12-23T02:41:10.771Z,14.80
2018-12-23T02:43:37.349Z,14.37
2018-12-23T02:46:03.989Z,16.53
2018-12-23T02:48:30.508Z,15.03
2018-12-23T02:50:57.094Z,16.03
2018-12-23T02:53:24.034Z,17.23
2018-12-23T02:55:50.569Z,16.23
2018-12-23T02:58:17.217Z,14.97
2018-12-23T03:00:44.244Z,15.50
2018-12-23T03:03:10.934Z,16.50
2018-12-23T03:05:37.490Z,15.80
2018-12-23T03:08:04.366Z,15.10
2018-12-23T03:10:30.988Z,16.97
2018-12-23T03:12:57.554Z,15.90
2018-12-23T03:15:24.200Z,14.90
2018-12-23T03:17:50.841Z,14.77
2018-12-23T03:20:17.499Z,16.00
2018-12-23T03:22:44.205Z,15.97
2018-12-23T03:25:10.828Z,16.23
2018-12-23T03:27:37.480Z,14.60
2018-12-23T03:30:04.669Z,17.43
2018-12-23T03:32:31.322Z,17.10
2018-12-23T03:34:58.033Z,16.77
2018-12-23T03:37:24.611Z,16.67
2018-12-23T03:39:51.228Z,15.87
2018-12-23T03:42:17.815Z,15.80
2018-12-23T03:44:44.677Z,17.47
2018-12-23T03:47:11.241Z,17.20
2018-12-23T03:49:37.770Z,18.20
2018-12-23T03:52:04.616Z,18.40
2018-12-23T03:54:31.274Z,15.63
2018-12-23T03:56:57.938Z,14.50
2018-12-23T03:59:24.680Z,17.12
2018-12-23T04:01:51.350Z,14.70
2018-12-23T04:04:17.969Z,13.60
2018-12-23T04:06:44.571Z,15.10
2018-12-23T04:09:11.073Z,13.53
2018-12-23T04:11:37.658Z,14.60
2018-12-23T04:14:04.559Z,15.10
2018-12-23T04:16:31.225Z,13.10
2018-12-23T04:18:57.807Z,14.27
2018-12-23T04:21:24.425Z,13.30
2018-12-23T04:23:51.016Z,14.53
2018-12-23T04:26:17.656Z,13.73
2018-12-23T04:28:44.484Z,13.40
2018-12-23T04:31:11.024Z,15.10
2018-12-23T04:33:37.623Z,12.90
2018-12-23T04:36:04.208Z,13.10
2018-12-23T04:38:30.817Z,13.80
2018-12-23T04:40:57.424Z,12.37
2018-12-23T04:43:24.259Z,13.50
2018-12-23T04:45:50.797Z,12.93
2018-12-23T04:48:17.330Z,13.10
2018-12-23T04:50:43.952Z,13.10
2018-12-23T04:53:10.505Z,13.60
2018-12-23T04:55:37.150Z,13.43
2018-12-23T04:58:03.689Z,13.30
2018-12-23T05:00:30.208Z,13.03
2018-12-23T05:02:56.862Z,13.63
2018-12-23T05:05:23.616Z,13.40
2018-12-23T05:07:50.248Z,12.90
2018-12-23T05:10:16.829Z,12.80
2018-12-23T05:12:43.358Z,14.60
2018-12-23T05:15:09.924Z,13.37
2018-12-23T05:17:36.540Z,12.83
2018-12-23T05:20:03.357Z,13.53
2018-12-23T05:22:29.952Z,13.20
2018-12-23T05:24:56.522Z,13.77
2018-12-23T05:27:23.368Z,15.07
2018-12-23T05:29:49.938Z,13.00
2018-12-23T05:32:16.527Z,14.17
2018-12-23T05:34:43.114Z,13.67
2018-12-23T05:37:09.742Z,13.50
2018-12-23T05:39:36.239Z,13.10
2018-12-23T05:42:02.768Z,12.90
2018-12-23T05:44:29.313Z,12.77
2018-12-23T05:46:55.898Z,13.67
2018-12-23T05:49:22.482Z,12.70
2018-12-23T05:51:49.106Z,12.50
2018-12-23T05:54:15.766Z,13.67
2018-12-23T05:56:42.452Z,13.27
2018-12-23T05:59:09.094Z,13.67
2018-12-23T06:01:35.680Z,13.90
2018-12-23T06:04:02.440Z,13.93
2018-12-23T06:06:29.011Z,13.90
2018-12-23T06:08:55.655Z,12.90
2018-12-23T06:11:22.573Z,13.60
2018-12-23T06:13:49.148Z,12.60
2018-12-23T06:16:15.722Z,13.43
2018-12-23T06:18:42.409Z,13.30
2018-12-23T06:21:09.054Z,12.17
2018-12-23T06:23:35.573Z,12.67
2018-12-23T06:26:02.175Z,12.37
2018-12-23T06:28:28.741Z,13.03
2018-12-23T06:30:55.390Z,12.50
2018-12-23T06:33:22.087Z,12.30
2018-12-23T06:35:48.709Z,12.60
2018-12-23T06:38:15.196Z,11.93
2018-12-23T06:40:41.828Z,14.00
2018-12-23T06:43:08.390Z,13.00
2018-12-23T06:45:35.037Z,13.03
2018-12-23T06:48:01.708Z,12.53
2018-12-23T06:50:28.329Z,13.20
2018-12-23T06:52:54.857Z,13.07
2018-12-23T06:55:21.666Z,12.77
2018-12-23T06:57:48.344Z,13.37
2018-12-23T07:00:14.873Z,14.13
2018-12-23T07:02:41.652Z,13.03
2018-12-23T07:05:08.287Z,13.43
2018-12-23T07:07:34.942Z,13.00
2018-12-23T07:10:01.629Z,13.17
2018-12-23T07:12:28.167Z,13.40
2018-12-23T07:14:54.764Z,13.57
2018-12-23T07:17:21.555Z,13.80
2018-12-23T07:19:48.223Z,13.70
2018-12-23T07:22:14.840Z,13.50
2018-12-23T07:24:41.422Z,12.60
2018-12-23T07:27:08.236Z,15.80
2018-12-23T07:29:34.743Z,14.00
2018-12-23T07:32:01.340Z,13.63
2018-12-23T07:34:27.973Z,12.83
2018-12-23T07:36:54.705Z,12.50
2018-12-23T07:39:21.630Z,12.37
2018-12-23T07:41:48.249Z,11.80
2018-12-23T07:44:14.768Z,12.07
2018-12-23T07:46:41.317Z,11.23
2018-12-23T07:49:07.882Z,12.43
2018-12-23T07:51:34.611Z,11.67
2018-12-23T07:54:01.260Z,11.60
2018-12-23T07:56:27.882Z,12.47
2018-12-23T07:58:54.509Z,12.00
2018-12-23T08:01:21.356Z,10.93
2018-12-23T08:03:48.011Z,11.30
2018-12-23T08:06:14.688Z,10.63
2018-12-23T08:08:41.361Z,10.70
2018-12-23T08:11:07.860Z,10.70
2018-12-23T08:13:34.409Z,9.33
2018-12-23T08:16:03.097Z,9.60
2018-12-23T08:18:29.693Z,9.90
2018-12-23T08:20:56.313Z,9.60
2018-12-23T08:23:23.213Z,9.27
2018-12-23T08:25:49.833Z,9.97
2018-12-23T08:28:16.375Z,8.83
2018-12-23T08:30:42.969Z,9.77
2018-12-23T08:33:09.604Z,9.93
2018-12-23T08:35:36.247Z,9.03
2018-12-23T08:38:02.931Z,9.03
2018-12-23T08:40:29.553Z,9.30
2018-12-23T08:42:56.143Z,9.20
2018-12-23T08:45:22.925Z,9.03
2018-12-23T08:47:49.520Z,8.67
2018-12-23T08:50:16.069Z,8.17
2018-12-23T08:52:42.738Z,8.30
2018-12-23T08:55:09.345Z,8.00
2018-12-23T08:57:35.933Z,8.40
2018-12-23T09:00:03.742Z,8.53
2018-12-23T09:02:30.385Z,8.13
2018-12-23T09:04:57.040Z,7.27
2018-12-23T09:07:23.705Z,6.90
2018-12-23T09:09:50.277Z,7.37
2018-12-23T09:12:16.897Z,8.87
2018-12-23T09:14:43.793Z,8.30
2018-12-23T09:17:10.437Z,7.50
2018-12-23T09:19:37.065Z,8.13
2018-12-23T09:22:03.949Z,8.03
2018-12-23T09:24:30.575Z,7.87
2018-12-23T09:26:57.071Z,6.93
2018-12-23T09:29:23.646Z,7.00
2018-12-23T09:31:50.273Z,6.73
2018-12-23T09:34:16.857Z,8.20
2018-12-23T09:36:43.502Z,7.57
2018-12-23T09:39:10.125Z,7.70
2018-12-23T09:41:36.624Z,8.30
2018-12-23T09:44:03.403Z,7.33
2018-12-23T09:46:30.069Z,7.97
2018-12-23T09:48:56.692Z,7.20
2018-12-23T09:51:23.478Z,5.90
2018-12-23T09:53:50.205Z,6.10
2018-12-23T09:56:16.934Z,8.13
2018-12-23T09:58:43.566Z,9.27
2018-12-23T10:01:10.128Z,10.63
2018-12-23T10:03:36.781Z,13.93
2018-12-23T10:06:03.450Z,8.13
2018-12-23T10:08:30.069Z,14.57
2018-12-23T10:10:56.588Z,10.47
2018-12-23T10:13:23.393Z,9.70
2018-12-23T10:15:50.079Z,6.77
2018-12-23T10:18:16.782Z,5.77
2018-12-23T10:20:43.481Z,6.10
2018-12-23T10:23:10.082Z,5.87
2018-12-23T10:25:36.699Z,6.63
2018-12-23T10:28:03.510Z,7.70
2018-12-23T10:30:30.145Z,6.30
2018-12-23T10:32:56.771Z,6.47
2018-12-23T10:35:23.328Z,6.27
2018-12-23T10:37:49.894Z,6.80
2018-12-23T10:40:16.546Z,6.20
2018-12-23T10:42:43.324Z,6.67
2018-12-23T10:45:09.908Z,7.10
2018-12-23T10:47:36.444Z,6.33
2018-12-23T10:50:03.228Z,6.97
2018-12-23T10:52:29.785Z,6.40
2018-12-23T10:54:56.372Z,6.17
2018-12-23T10:57:23.027Z,5.77
2018-12-23T10:59:49.653Z,5.80
2018-12-23T11:02:16.305Z,5.07
2018-12-23T11:04:42.937Z,5.27
2018-12-23T11:07:09.443Z,5.77
2018-12-23T11:09:35.965Z,5.23
2018-12-23T11:12:02.767Z,4.67
2018-12-23T11:14:29.391Z,5.07
2018-12-23T11:16:56.156Z,4.40
2018-12-23T11:19:22.979Z,5.40
2018-12-23T11:21:49.554Z,5.20
2018-12-23T11:24:16.342Z,4.97
2018-12-23T11:26:43.127Z,5.20
2018-12-23T11:29:09.793Z,4.80
2018-12-23T11:31:36.437Z,4.80
2018-12-23T11:34:03.030Z,4.30
2018-12-23T11:36:29.678Z,5.20
2018-12-23T11:38:56.298Z,5.90
2018-12-23T11:41:23.173Z,7.67
2018-12-23T11:43:49.836Z,6.83
2018-12-23T11:46:16.377Z,6.83
2018-12-23T11:48:42.966Z,7.20
2018-12-23T11:51:09.604Z,7.13
2018-12-23T11:53:36.149Z,7.27
2018-12-23T11:56:03.239Z,8.00
2018-12-23T11:58:29.894Z,8.80
2018-12-23T12:00:56.384Z,6.80
2018-12-23T12:03:23.300Z,7.63
2018-12-23T12:05:49.849Z,7.90
2018-12-23T12:08:16.443Z,7.00
2018-12-23T12:10:43.123Z,7.50
2018-12-23T12:13:09.702Z,8.07
2018-12-23T12:15:36.329Z,7.93
2018-12-23T12:18:03.136Z,7.93
2018-12-23T12:20:29.845Z,8.10
2018-12-23T12:22:56.531Z,8.90
2018-12-23T12:25:23.165Z,7.27
2018-12-23T12:27:49.721Z,7.90
2018-12-23T12:30:16.382Z,8.93
2018-12-23T12:32:42.971Z,7.97
2018-12-23T12:35:09.499Z,8.87
2018-12-23T12:37:36.012Z,8.27
2018-12-23T12:40:03.023Z,8.40
2018-12-23T12:42:49.444Z,9.07
2018-12-23T12:45:36.100Z,8.90
2018-12-23T12:48:02.608Z,8.50
2018-12-23T12:50:49.015Z,9.53
2018-12-23T12:53:35.765Z,11.77
2018-12-23T12:56:22.428Z,10.80
2018-12-23T12:59:08.922Z,11.50
2018-12-23T13:01:55.771Z,10.27
2018-12-23T13:04:42.407Z,9.50
2018-12-23T13:07:28.841Z,9.87
2018-12-23T13:10:15.281Z,10.30
2018-12-23T13:13:01.742Z,10.40
2018-12-23T13:15:48.174Z,10.07
2018-12-23T13:18:34.862Z,10.30
2018-12-23T13:21:21.378Z,9.20
2018-12-23T13:24:08.053Z,11.77
2018-12-23T13:26:54.510Z,11.80
2018-12-23T14:02:21.583Z,11.30
2018-12-23T14:05:08.115Z,11.23
2018-12-23T14:07:54.875Z,11.10
2018-12-23T14:10:41.352Z,10.97
2018-12-23T14:13:27.896Z,12.07
2018-12-23T14:16:14.472Z,12.10
2018-12-23T14:19:01.230Z,14.73
2018-12-23T14:21:47.791Z,13.40
2018-12-23T14:24:34.323Z,13.37
2018-12-23T14:27:20.870Z,13.17
2018-12-23T14:30:07.607Z,13.03
2018-12-23T15:41:33.201Z,10.87
2018-12-23T15:44:10.681Z,11.47
2018-12-23T18:42:50.216Z,14.50
2018-12-23T18:45:16.785Z,15.07
2018-12-23T18:47:43.455Z,16.10
2018-12-23T18:50:10.086Z,16.27
2018-12-23T18:52:36.734Z,15.40
2018-12-23T18:55:04.209Z,15.83
2018-12-23T18:57:30.889Z,15.20
2018-12-23T18:59:57.596Z,14.27
2018-12-23T19:02:25.537Z,15.23
2018-12-23T19:04:52.388Z,17.20
2018-12-23T19:07:18.955Z,14.77
2018-12-23T19:09:46.047Z,16.03
2018-12-23T19:12:21.001Z,17.10
2018-12-23T19:14:58.685Z,16.87
2018-12-23T19:17:30.361Z,16.50
2018-12-23T19:20:01.864Z,13.57
2018-12-23T19:22:33.092Z,15.67
2018-12-23T19:25:10.537Z,15.43
2018-12-23T19:27:39.045Z,14.87
2018-12-23T19:30:16.911Z,15.13
2018-12-23T19:32:45.646Z,16.47
2018-12-23T19:35:14.047Z,15.80
2018-12-23T19:37:54.606Z,15.30
2018-12-23T19:40:35.113Z,15.13
2018-12-23T19:43:09.340Z,15.93
2018-12-23T19:45:53.071Z,15.13
2018-12-23T19:48:38.685Z,17.00
2018-12-23T19:51:07.209Z,15.03
2018-12-23T19:53:42.304Z,16.20
2018-12-23T19:56:13.591Z,16.27
2018-12-23T19:58:59.224Z,14.37
2018-12-23T20:01:30.720Z,17.40
2018-12-23T20:04:17.356Z,14.43
2018-12-23T20:06:48.862Z,14.53
2018-12-23T20:09:17.284Z,17.20
2018-12-23T20:11:55.019Z,17.30
2018-12-23T20:14:35.495Z,17.13
2018-12-23T20:17:21.060Z,20.80
2018-12-23T20:19:52.289Z,17.33
2018-12-23T20:22:29.932Z,19.43
2018-12-23T20:25:01.547Z,16.30
2018-12-23T20:27:47.300Z,28.70
2018-12-23T20:30:21.551Z,19.60
2018-12-23T20:33:02.545Z,15.60
2018-12-23T20:35:34.041Z,13.90
2018-12-23T20:38:05.724Z,13.93
2018-12-23T20:40:40.008Z,15.23
2018-12-23T20:43:08.427Z,28.63
2018-12-23T20:45:42.661Z,16.80
2018-12-23T20:48:14.397Z,17.50
2018-12-23T20:50:52.239Z,16.67
2018-12-23T20:53:21.216Z,19.23
2018-12-23T20:56:06.276Z,26.47
2018-12-23T20:58:35.034Z,17.00
2018-12-23T21:01:20.181Z,16.83
2018-12-23T21:03:48.893Z,24.60
2018-12-23T21:06:26.268Z,16.10
2018-12-23T21:08:54.983Z,18.43
2018-12-23T21:11:29.299Z,15.13
2018-12-23T21:13:57.739Z,14.37
2018-12-23T21:16:29.403Z,16.07
2018-12-23T21:19:00.763Z,14.27
2018-12-23T21:21:38.491Z,15.40
2018-12-23T21:24:07.259Z,14.93
2018-12-23T21:26:38.688Z,13.97
2018-12-23T21:29:22.540Z,16.40
2018-12-23T21:31:50.952Z,16.27
2018-12-23T21:34:36.615Z,16.87
2018-12-23T21:37:21.825Z,15.17
2018-12-23T21:39:50.581Z,15.37
2018-12-23T21:42:24.844Z,16.70
2018-12-23T21:45:05.460Z,16.03
2018-12-23T21:47:36.835Z,14.80
2018-12-23T21:50:05.372Z,15.60
2018-12-23T21:52:40.067Z,16.20
2018-12-23T21:55:08.697Z,15.40
2018-12-23T21:57:52.335Z,15.43
2018-12-23T22:00:30.099Z,15.87
2018-12-23T22:03:05.203Z,16.33
2018-12-23T22:05:42.682Z,14.23
2018-12-23T22:08:23.390Z,16.20
2018-12-23T22:10:51.901Z,14.40
2018-12-23T22:13:24.209Z,16.40
2018-12-23T22:15:51.143Z,15.63
2018-12-23T22:18:17.648Z,15.63
2018-12-23T22:20:44.159Z,16.37
2018-12-23T22:23:11.046Z,15.90
2018-12-23T22:25:37.638Z,15.57
2018-12-23T22:28:04.156Z,14.67
2018-12-23T22:30:30.716Z,15.77
2018-12-23T22:32:59.299Z,15.87
2018-12-23T22:35:25.845Z,16.97
2018-12-23T22:37:52.753Z,17.20
2018-12-23T22:40:19.357Z,16.87
2018-12-23T22:42:45.893Z,17.97
2018-12-23T22:45:12.776Z,17.70
2018-12-23T22:47:39.404Z,14.07
2018-12-23T22:50:05.928Z,16.57
2018-12-23T22:52:32.710Z,18.10
2018-12-23T22:54:59.315Z,17.33
2018-12-23T22:57:25.960Z,16.90
2018-12-23T22:59:52.466Z,17.33
2018-12-23T23:02:19.029Z,16.90
2018-12-23T23:04:45.779Z,15.37
2018-12-23T23:07:12.519Z,15.00
2018-12-23T23:09:39.045Z,13.07
2018-12-23T23:12:05.568Z,13.30
2018-12-23T23:14:32.181Z,13.57
2018-12-23T23:16:58.684Z,12.47
2018-12-23T23:19:25.229Z,13.80
2018-12-23T23:21:51.870Z,13.67
2018-12-23T23:24:18.367Z,13.63
2018-12-23T23:26:44.882Z,13.47
2018-12-23T23:29:11.632Z,13.13
2018-12-23T23:31:38.208Z,8.60
2018-12-23T23:34:04.708Z,12.83
2018-12-23T23:36:31.481Z,8.33
2018-12-23T23:38:57.975Z,7.23
2018-12-23T23:41:24.475Z,11.33
2018-12-23T23:43:51.015Z,7.30
2018-12-23T23:46:17.553Z,13.47
2018-12-23T23:48:44.160Z,8.53
2018-12-23T23:51:10.999Z,7.40
2018-12-23T23:53:37.629Z,8.57
2018-12-23T23:56:04.213Z,8.20
2018-12-23T23:58:30.983Z,7.20
